sensor_id;sensor_type;location;lat;lon;timestamp;pressure;altitude;pressure_sealevel;temperature;humidity
60258;BME280;46115;44.484;11.314;2023-02-03T00:02:55;101191.19;;;9.13;59.47
60258;BME280;46115;44.484;11.314;2023-02-03T00:06:57;101188.44;;;9.16;59.76
60258;BME280;46115;44.484;11.314;2023-02-03T00:11:00;101193.06;;;9.10;59.47
60258;BME280;46115;44.484;11.314;2023-02-03T00:15:03;101190.66;;;9.02;60.16
60258;BME280;46115;44.484;11.314;2023-02-03T00:19:06;101206.25;;;9.10;60.50
60258;BME280;46115;44.484;11.314;2023-02-03T00:23:09;101201.78;;;9.12;60.01
60258;BME280;46115;44.484;11.314;2023-02-03T00:27:14;101202.59;;;9.14;59.55
60258;BME280;46115;44.484;11.314;2023-02-03T00:31:18;101204.47;;;9.10;60.45
60258;BME280;46115;44.484;11.314;2023-02-03T00:35:21;101177.22;;;8.82;60.62
60258;BME280;46115;44.484;11.314;2023-02-03T00:39:24;101203.38;;;8.88;60.99
60258;BME280;46115;44.484;11.314;2023-02-03T00:43:28;101206.13;;;8.85;62.02
60258;BME280;46115;44.484;11.314;2023-02-03T00:47:30;101202.03;;;8.74;62.69
60258;BME280;46115;44.484;11.314;2023-02-03T00:51:33;101193.50;;;8.65;62.84
60258;BME280;46115;44.484;11.314;2023-02-03T00:55:35;101198.50;;;8.75;61.19
60258;BME280;46115;44.484;11.314;2023-02-03T00:59:40;101200.69;;;8.89;59.37
60258;BME280;46115;44.484;11.314;2023-02-03T01:03:43;101186.03;;;8.81;59.51
60258;BME280;46115;44.484;11.314;2023-02-03T01:07:45;101196.47;;;8.84;60.71
60258;BME280;46115;44.484;11.314;2023-02-03T01:11:48;101198.50;;;8.75;61.02
60258;BME280;46115;44.484;11.314;2023-02-03T01:15:51;101201.13;;;8.75;61.01
60258;BME280;46115;44.484;11.314;2023-02-03T01:19:53;101200.44;;;8.69;62.28
60258;BME280;46115;44.484;11.314;2023-02-03T01:23:58;101193.88;;;8.53;62.52
60258;BME280;46115;44.484;11.314;2023-02-03T01:28:01;101186.97;;;8.49;62.16
60258;BME280;46115;44.484;11.314;2023-02-03T01:32:04;101177.75;;;8.63;61.05
60258;BME280;46115;44.484;11.314;2023-02-03T01:36:09;101183.06;;;8.62;60.78
60258;BME280;46115;44.484;11.314;2023-02-03T01:40:12;101187.38;;;8.64;60.53
60258;BME280;46115;44.484;11.314;2023-02-03T01:48:36;101205.47;;;8.47;60.76
60258;BME280;46115;44.484;11.314;2023-02-03T01:52:40;101208.28;;;8.41;61.44
60258;BME280;46115;44.484;11.314;2023-02-03T01:56:47;101213.50;;;8.42;61.45
60258;BME280;46115;44.484;11.314;2023-02-03T02:00:52;101215.09;;;8.48;61.03
60258;BME280;46115;44.484;11.314;2023-02-03T02:05:02;101206.63;;;8.37;61.07
60258;BME280;46115;44.484;11.314;2023-02-03T02:09:05;101221.41;;;8.42;60.34
60258;BME280;46115;44.484;11.314;2023-02-03T02:13:08;101214.97;;;8.53;60.21
60258;BME280;46115;44.484;11.314;2023-02-03T02:17:17;101183.91;;;8.31;59.55
60258;BME280;46115;44.484;11.314;2023-02-03T02:25:51;101174.31;;;8.29;59.25
60258;BME280;46115;44.484;11.314;2023-02-03T02:30:35;101195.84;;;8.13;60.73
60258;BME280;46115;44.484;11.314;2023-02-03T02:34:53;101195.88;;;8.12;60.77
60258;BME280;46115;44.484;11.314;2023-02-03T02:39:08;101194.59;;;7.94;61.78
60258;BME280;46115;44.484;11.314;2023-02-03T02:43:17;101198.28;;;7.87;62.79
60258;BME280;46115;44.484;11.314;2023-02-03T02:47:22;101194.75;;;7.88;62.88
60258;BME280;46115;44.484;11.314;2023-02-03T02:51:28;101192.00;;;7.93;62.53
60258;BME280;46115;44.484;11.314;2023-02-03T02:55:32;101205.03;;;7.99;61.74
60258;BME280;46115;44.484;11.314;2023-02-03T02:59:40;101202.31;;;8.02;61.94
60258;BME280;46115;44.484;11.314;2023-02-03T03:03:43;101208.13;;;7.80;63.68
60258;BME280;46115;44.484;11.314;2023-02-03T03:07:51;101212.69;;;7.74;64.54
60258;BME280;46115;44.484;11.314;2023-02-03T03:11:58;101200.91;;;7.53;64.86
60258;BME280;46115;44.484;11.314;2023-02-03T03:16:05;101204.59;;;7.46;65.23
60258;BME280;46115;44.484;11.314;2023-02-03T03:20:13;101208.78;;;7.55;64.56
60258;BME280;46115;44.484;11.314;2023-02-03T03:24:21;101224.75;;;7.47;65.20
60258;BME280;46115;44.484;11.314;2023-02-03T03:28:36;101174.75;;;7.11;65.67
60258;BME280;46115;44.484;11.314;2023-02-03T03:32:39;101217.91;;;7.40;64.85
60258;BME280;46115;44.484;11.314;2023-02-03T03:36:45;101218.44;;;7.54;63.80
60258;BME280;46115;44.484;11.314;2023-02-03T03:40:53;101222.88;;;7.52;64.12
60258;BME280;46115;44.484;11.314;2023-02-03T03:45:03;101237.47;;;7.65;63.25
60258;BME280;46115;44.484;11.314;2023-02-03T03:49:07;101247.06;;;7.68;63.05
60258;BME280;46115;44.484;11.314;2023-02-03T03:53:12;101240.66;;;7.78;61.82
60258;BME280;46115;44.484;11.314;2023-02-03T03:57:21;101231.94;;;7.76;62.34
60258;BME280;46115;44.484;11.314;2023-02-03T04:01:26;101231.84;;;7.79;60.63
60258;BME280;46115;44.484;11.314;2023-02-03T04:05:31;101239.38;;;7.93;58.96
60258;BME280;46115;44.484;11.314;2023-02-03T04:09:34;101253.38;;;7.95;60.57
60258;BME280;46115;44.484;11.314;2023-02-03T04:13:38;101253.41;;;7.93;59.50
60258;BME280;46115;44.484;11.314;2023-02-03T04:17:40;101256.41;;;7.79;60.63
60258;BME280;46115;44.484;11.314;2023-02-03T04:21:42;101256.69;;;7.69;62.63
60258;BME280;46115;44.484;11.314;2023-02-03T04:25:44;101257.97;;;7.51;62.89
60258;BME280;46115;44.484;11.314;2023-02-03T04:29:48;101269.53;;;7.44;63.24
60258;BME280;46115;44.484;11.314;2023-02-03T04:33:51;101268.72;;;7.42;63.62
60258;BME280;46115;44.484;11.314;2023-02-03T04:37:53;101271.41;;;7.39;63.99
60258;BME280;46115;44.484;11.314;2023-02-03T04:41:55;101280.28;;;7.35;64.30
60258;BME280;46115;44.484;11.314;2023-02-03T04:45:59;101292.09;;;7.15;64.77
60258;BME280;46115;44.484;11.314;2023-02-03T04:50:02;101293.34;;;6.99;65.34
60258;BME280;46115;44.484;11.314;2023-02-03T04:54:04;101286.28;;;7.01;65.79
60258;BME280;46115;44.484;11.314;2023-02-03T04:58:07;101283.91;;;6.87;65.78
60258;BME280;46115;44.484;11.314;2023-02-03T05:02:11;101278.19;;;6.69;66.30
60258;BME280;46115;44.484;11.314;2023-02-03T05:06:13;101269.63;;;6.57;67.77
60258;BME280;46115;44.484;11.314;2023-02-03T05:10:15;101268.63;;;6.66;67.18
60258;BME280;46115;44.484;11.314;2023-02-03T05:14:18;101238.34;;;6.47;67.36
60258;BME280;46115;44.484;11.314;2023-02-03T05:18:22;101264.22;;;6.67;67.04
60258;BME280;46115;44.484;11.314;2023-02-03T05:22:24;101260.69;;;6.68;66.78
60258;BME280;46115;44.484;11.314;2023-02-03T05:26:26;101257.25;;;6.66;66.72
60258;BME280;46115;44.484;11.314;2023-02-03T05:30:31;101258.97;;;6.67;66.60
60258;BME280;46115;44.484;11.314;2023-02-03T05:34:35;101257.38;;;6.58;67.49
60258;BME280;46115;44.484;11.314;2023-02-03T05:38:37;101225.06;;;6.53;67.49
60258;BME280;46115;44.484;11.314;2023-02-03T05:42:45;101210.41;;;6.43;68.02
60258;BME280;46115;44.484;11.314;2023-02-03T05:46:48;101215.78;;;6.37;67.48
60258;BME280;46115;44.484;11.314;2023-02-03T05:50:52;101231.25;;;6.50;67.01
60258;BME280;46115;44.484;11.314;2023-02-03T05:54:55;101236.50;;;6.50;66.30
60258;BME280;46115;44.484;11.314;2023-02-03T05:58:57;101240.09;;;6.46;66.61
60258;BME280;46115;44.484;11.314;2023-02-03T06:03:00;101247.75;;;6.57;66.28
60258;BME280;46115;44.484;11.314;2023-02-03T06:07:04;101247.00;;;6.52;66.56
60258;BME280;46115;44.484;11.314;2023-02-03T06:11:07;101239.34;;;6.40;66.92
60258;BME280;46115;44.484;11.314;2023-02-03T06:15:10;101263.09;;;6.35;67.14
60258;BME280;46115;44.484;11.314;2023-02-03T06:19:12;101260.81;;;6.15;67.82
60258;BME280;46115;44.484;11.314;2023-02-03T06:23:16;101268.88;;;6.06;68.80
60258;BME280;46115;44.484;11.314;2023-02-03T06:27:18;101270.53;;;6.10;68.27
60258;BME280;46115;44.484;11.314;2023-02-03T06:31:21;101275.91;;;6.04;69.54
60258;BME280;46115;44.484;11.314;2023-02-03T06:35:23;101273.09;;;6.13;68.01
60258;BME280;46115;44.484;11.314;2023-02-03T06:39:26;101280.16;;;6.10;68.59
60258;BME280;46115;44.484;11.314;2023-02-03T06:43:29;101280.97;;;6.15;67.74
60258;BME280;46115;44.484;11.314;2023-02-03T06:47:31;101278.38;;;6.12;68.13
60258;BME280;46115;44.484;11.314;2023-02-03T06:51:33;101263.53;;;6.11;68.28
60258;BME280;46115;44.484;11.314;2023-02-03T06:55:37;101245.13;;;6.12;68.36
60258;BME280;46115;44.484;11.314;2023-02-03T06:59:40;101248.38;;;6.27;66.85
60258;BME280;46115;44.484;11.314;2023-02-03T07:03:42;101250.03;;;6.32;66.67
60258;BME280;46115;44.484;11.314;2023-02-03T07:07:45;101245.41;;;6.43;67.50
60258;BME280;46115;44.484;11.314;2023-02-03T07:11:49;101246.00;;;6.57;66.03
60258;BME280;46115;44.484;11.314;2023-02-03T07:15:51;101244.19;;;6.61;66.16
60258;BME280;46115;44.484;11.314;2023-02-03T07:19:56;101268.53;;;6.71;65.81
60258;BME280;46115;44.484;11.314;2023-02-03T07:24:01;101275.66;;;6.64;66.14
60258;BME280;46115;44.484;11.314;2023-02-03T07:28:06;101285.00;;;6.79;65.23
60258;BME280;46115;44.484;11.314;2023-02-03T07:32:09;101294.13;;;7.03;64.34
60258;BME280;46115;44.484;11.314;2023-02-03T07:36:11;101289.66;;;7.08;64.14
60258;BME280;46115;44.484;11.314;2023-02-03T07:40:14;101287.28;;;6.96;64.32
60258;BME280;46115;44.484;11.314;2023-02-03T07:44:18;101306.53;;;7.38;63.60
60258;BME280;46115;44.484;11.314;2023-02-03T07:48:20;101320.41;;;7.81;62.06
60258;BME280;46115;44.484;11.314;2023-02-03T07:52:23;101320.97;;;8.28;60.51
60258;BME280;46115;44.484;11.314;2023-02-03T07:56:26;101331.84;;;8.83;58.63
60258;BME280;46115;44.484;11.314;2023-02-03T08:00:30;101364.75;;;9.30;56.84
60258;BME280;46115;44.484;11.314;2023-02-03T08:04:32;101377.31;;;9.81;55.94
60258;BME280;46115;44.484;11.314;2023-02-03T08:08:34;101372.69;;;9.59;56.24
60258;BME280;46115;44.484;11.314;2023-02-03T08:12:37;101381.91;;;9.46;56.13
60258;BME280;46115;44.484;11.314;2023-02-03T08:16:40;101401.31;;;10.29;55.18
60258;BME280;46115;44.484;11.314;2023-02-03T08:20:43;101427.91;;;10.51;54.45
60258;BME280;46115;44.484;11.314;2023-02-03T08:24:45;101430.22;;;10.86;52.79
60258;BME280;46115;44.484;11.314;2023-02-03T08:28:48;101423.28;;;12.66;49.10
60258;BME280;46115;44.484;11.314;2023-02-03T08:32:52;101420.06;;;13.21;46.82
60258;BME280;46115;44.484;11.314;2023-02-03T08:36:54;101407.69;;;15.83;42.41
60258;BME280;46115;44.484;11.314;2023-02-03T08:40:57;101406.09;;;17.02;38.99
60258;BME280;46115;44.484;11.314;2023-02-03T08:44:59;101431.31;;;17.84;37.21
60258;BME280;46115;44.484;11.314;2023-02-03T08:49:03;101455.63;;;18.88;34.65
60258;BME280;46115;44.484;11.314;2023-02-03T08:53:06;101441.97;;;17.27;35.06
60258;BME280;46115;44.484;11.314;2023-02-03T08:57:09;101447.09;;;18.69;33.00
60258;BME280;46115;44.484;11.314;2023-02-03T09:01:13;101420.00;;;18.07;34.02
60258;BME280;46115;44.484;11.314;2023-02-03T09:05:17;101422.16;;;18.15;33.47
60258;BME280;46115;44.484;11.314;2023-02-03T09:09:21;101406.06;;;15.32;37.59
60258;BME280;46115;44.484;11.314;2023-02-03T09:13:26;101413.56;;;16.51;36.54
60258;BME280;46115;44.484;11.314;2023-02-03T09:17:28;101401.78;;;15.29;37.86
60258;BME280;46115;44.484;11.314;2023-02-03T09:21:32;101402.97;;;16.66;35.16
60258;BME280;46115;44.484;11.314;2023-02-03T09:25:35;101393.28;;;14.88;38.48
60258;BME280;46115;44.484;11.314;2023-02-03T09:29:37;101357.59;;;15.57;37.67
60258;BME280;46115;44.484;11.314;2023-02-03T09:33:40;101332.97;;;15.85;36.47
60258;BME280;46115;44.484;11.314;2023-02-03T09:37:45;101369.63;;;16.73;35.89
60258;BME280;46115;44.484;11.314;2023-02-03T09:42:32;101363.09;;;16.17;36.20
60258;BME280;46115;44.484;11.314;2023-02-03T09:46:42;101361.16;;;15.09;38.03
60258;BME280;46115;44.484;11.314;2023-02-03T09:50:46;101359.69;;;16.45;36.45
60258;BME280;46115;44.484;11.314;2023-02-03T09:55:00;101366.59;;;15.72;37.79
60258;BME280;46115;44.484;11.314;2023-02-03T09:59:04;101362.31;;;14.17;41.42
60258;BME280;46115;44.484;11.314;2023-02-03T10:03:14;101371.22;;;14.52;40.07
60258;BME280;46115;44.484;11.314;2023-02-03T10:07:27;101377.09;;;14.05;41.37
60258;BME280;46115;44.484;11.314;2023-02-03T10:16:17;101379.44;;;13.37;43.54
60258;BME280;46115;44.484;11.314;2023-02-03T10:20:33;101369.72;;;12.97;45.23
60258;BME280;46115;44.484;11.314;2023-02-03T10:24:43;101372.78;;;12.68;45.84
60258;BME280;46115;44.484;11.314;2023-02-03T10:28:53;101374.84;;;12.61;46.05
60258;BME280;46115;44.484;11.314;2023-02-03T10:33:09;101357.53;;;12.73;45.87
60258;BME280;46115;44.484;11.314;2023-02-03T10:37:16;101358.78;;;12.44;46.78
60258;BME280;46115;44.484;11.314;2023-02-03T10:41:23;101366.16;;;12.98;46.01
60258;BME280;46115;44.484;11.314;2023-02-03T10:45:36;101371.38;;;12.79;46.65
60258;BME280;46115;44.484;11.314;2023-02-03T10:49:41;101373.56;;;13.10;46.61
60258;BME280;46115;44.484;11.314;2023-02-03T10:53:45;101345.53;;;12.64;47.10
60258;BME280;46115;44.484;11.314;2023-02-03T10:57:48;101383.72;;;13.01;46.71
60258;BME280;46115;44.484;11.314;2023-02-03T11:01:51;101376.19;;;13.10;47.04
60258;BME280;46115;44.484;11.314;2023-02-03T11:06:09;101376.84;;;12.97;47.29
60258;BME280;46115;44.484;11.314;2023-02-03T11:10:26;101331.94;;;12.72;48.04
60258;BME280;46115;44.484;11.314;2023-02-03T11:14:38;101343.28;;;12.75;49.06
60258;BME280;46115;44.484;11.314;2023-02-03T11:18:49;101320.06;;;12.40;49.42
60258;BME280;46115;44.484;11.314;2023-02-03T11:22:54;101340.56;;;12.16;50.83
60258;BME280;46115;44.484;11.314;2023-02-03T11:26:59;101333.06;;;12.66;50.78
60258;BME280;46115;44.484;11.314;2023-02-03T11:31:04;101325.31;;;12.62;51.70
60258;BME280;46115;44.484;11.314;2023-02-03T11:35:14;101306.81;;;12.60;51.35
60258;BME280;46115;44.484;11.314;2023-02-03T11:39:24;101307.41;;;12.87;50.77
60258;BME280;46115;44.484;11.314;2023-02-03T11:43:28;101304.06;;;12.82;50.79
60258;BME280;46115;44.484;11.314;2023-02-03T11:47:36;101323.25;;;12.89;51.45
60258;BME280;46115;44.484;11.314;2023-02-03T11:51:43;101312.50;;;12.92;50.65
60258;BME280;46115;44.484;11.314;2023-02-03T11:56:05;101300.78;;;12.57;52.57
60258;BME280;46115;44.484;11.314;2023-02-03T12:00:22;101285.66;;;12.98;51.91
60258;BME280;46115;44.484;11.314;2023-02-03T12:04:49;101298.00;;;12.39;53.33
60258;BME280;46115;44.484;11.314;2023-02-03T12:09:15;101300.72;;;12.58;53.10
60258;BME280;46115;44.484;11.314;2023-02-03T12:13:36;101291.66;;;12.23;54.25
60258;BME280;46115;44.484;11.314;2023-02-03T12:17:50;101284.81;;;11.74;55.86
60258;BME280;46115;44.484;11.314;2023-02-03T12:22:05;101262.84;;;11.72;55.37
60258;BME280;46115;44.484;11.314;2023-02-03T12:26:17;101243.72;;;11.87;55.37
60258;BME280;46115;44.484;11.314;2023-02-03T12:30:24;101231.69;;;11.56;56.43
60258;BME280;46115;44.484;11.314;2023-02-03T12:34:33;101234.38;;;11.77;56.21
60258;BME280;46115;44.484;11.314;2023-02-03T12:38:41;101214.34;;;11.49;57.33
60258;BME280;46115;44.484;11.314;2023-02-03T12:42:51;101190.16;;;11.79;56.89
60258;BME280;46115;44.484;11.314;2023-02-03T12:47:01;101199.59;;;11.86;56.28
60258;BME280;46115;44.484;11.314;2023-02-03T12:51:07;101175.94;;;12.02;55.79
60258;BME280;46115;44.484;11.314;2023-02-03T12:55:19;101165.44;;;11.80;55.42
60258;BME280;46115;44.484;11.314;2023-02-03T12:59:24;101160.84;;;11.83;54.87
60258;BME280;46115;44.484;11.314;2023-02-03T13:03:35;101167.00;;;12.04;53.08
60258;BME280;46115;44.484;11.314;2023-02-03T13:07:45;101168.72;;;12.05;53.71
60258;BME280;46115;44.484;11.314;2023-02-03T13:11:55;101156.81;;;11.95;54.09
60258;BME280;46115;44.484;11.314;2023-02-03T13:16:00;101151.38;;;11.98;53.88
60258;BME280;46115;44.484;11.314;2023-02-03T13:20:13;101116.94;;;11.78;55.45
60258;BME280;46115;44.484;11.314;2023-02-03T13:24:20;101121.13;;;12.23;52.98
60258;BME280;46115;44.484;11.314;2023-02-03T13:28:36;101138.34;;;12.33;51.80
60258;BME280;46115;44.484;11.314;2023-02-03T13:32:55;101125.66;;;12.21;52.31
60258;BME280;46115;44.484;11.314;2023-02-03T13:37:40;101099.44;;;11.94;52.99
60258;BME280;46115;44.484;11.314;2023-02-03T13:41:52;101083.41;;;11.97;52.26
60258;BME280;46115;44.484;11.314;2023-02-03T13:45:56;101080.06;;;12.12;51.95
60258;BME280;46115;44.484;11.314;2023-02-03T13:50:01;101075.34;;;12.38;51.92
60258;BME280;46115;44.484;11.314;2023-02-03T13:54:13;101073.03;;;12.68;50.71
60258;BME280;46115;44.484;11.314;2023-02-03T13:58:22;101065.38;;;12.43;52.08
60258;BME280;46115;44.484;11.314;2023-02-03T14:02:44;101064.94;;;12.71;51.59
60258;BME280;46115;44.484;11.314;2023-02-03T14:06:55;101075.88;;;12.82;50.47
60258;BME280;46115;44.484;11.314;2023-02-03T14:15:43;101057.81;;;12.90;48.85
60258;BME280;46115;44.484;11.314;2023-02-03T14:19:56;101070.00;;;12.75;50.02
60258;BME280;46115;44.484;11.314;2023-02-03T14:24:02;101069.97;;;12.39;51.47
60258;BME280;46115;44.484;11.314;2023-02-03T14:28:10;101062.34;;;12.69;50.65
60258;BME280;46115;44.484;11.314;2023-02-03T14:32:14;101075.94;;;12.80;48.68
60258;BME280;46115;44.484;11.314;2023-02-03T14:36:40;101039.97;;;12.20;49.56
60258;BME280;46115;44.484;11.314;2023-02-03T14:40:49;101079.19;;;12.68;49.36
60258;BME280;46115;44.484;11.314;2023-02-03T14:45:07;101078.72;;;12.60;49.50
60258;BME280;46115;44.484;11.314;2023-02-03T14:49:34;101062.03;;;12.58;48.81
60258;BME280;46115;44.484;11.314;2023-02-03T14:53:57;101065.31;;;12.44;49.51
60258;BME280;46115;44.484;11.314;2023-02-03T14:58:12;101052.28;;;12.40;48.95
60258;BME280;46115;44.484;11.314;2023-02-03T15:02:19;101056.78;;;12.57;47.86
60258;BME280;46115;44.484;11.314;2023-02-03T15:06:37;101065.69;;;12.37;48.50
60258;BME280;46115;44.484;11.314;2023-02-03T15:10:41;101065.53;;;12.59;48.90
60258;BME280;46115;44.484;11.314;2023-02-03T15:14:44;101063.59;;;12.62;48.03
60258;BME280;46115;44.484;11.314;2023-02-03T15:18:53;101006.78;;;11.93;49.11
60258;BME280;46115;44.484;11.314;2023-02-03T15:22:57;101051.50;;;12.19;48.74
60258;BME280;46115;44.484;11.314;2023-02-03T15:27:00;101048.84;;;12.19;49.32
60258;BME280;46115;44.484;11.314;2023-02-03T15:31:02;101047.53;;;12.09;50.04
60258;BME280;46115;44.484;11.314;2023-02-03T15:35:11;101021.97;;;12.08;48.89
60258;BME280;46115;44.484;11.314;2023-02-03T15:39:28;101034.66;;;12.20;49.54
60258;BME280;46115;44.484;11.314;2023-02-03T15:43:36;101025.81;;;11.82;51.00
60258;BME280;46115;44.484;11.314;2023-02-03T15:47:44;101022.09;;;11.86;52.19
60258;BME280;46115;44.484;11.314;2023-02-03T15:51:50;100999.69;;;11.93;53.15
60258;BME280;46115;44.484;11.314;2023-02-03T15:56:00;100994.53;;;11.70;55.41
60258;BME280;46115;44.484;11.314;2023-02-03T16:00:27;100970.63;;;11.52;56.88
60258;BME280;46115;44.484;11.314;2023-02-03T16:04:30;100980.94;;;11.38;58.40
60258;BME280;46115;44.484;11.314;2023-02-03T16:08:36;100970.63;;;11.32;58.03
60258;BME280;46115;44.484;11.314;2023-02-03T16:12:41;100972.16;;;11.38;57.11
60258;BME280;46115;44.484;11.314;2023-02-03T16:16:48;100967.72;;;11.38;58.43
60258;BME280;46115;44.484;11.314;2023-02-03T16:20:52;100979.03;;;11.01;60.68
60258;BME280;46115;44.484;11.314;2023-02-03T16:24:54;100988.44;;;11.08;61.35
60258;BME280;46115;44.484;11.314;2023-02-03T16:29:10;100987.63;;;11.06;61.76
60258;BME280;46115;44.484;11.314;2023-02-03T16:33:30;101002.66;;;10.85;62.47
60258;BME280;46115;44.484;11.314;2023-02-03T16:37:51;100998.16;;;11.08;61.30
60258;BME280;46115;44.484;11.314;2023-02-03T16:42:14;100999.78;;;11.12;61.85
60258;BME280;46115;44.484;11.314;2023-02-03T16:46:36;100974.47;;;10.42;63.51
60258;BME280;46115;44.484;11.314;2023-02-03T23:06:09;100782.59;;;9.74;62.75
60258;BME280;46115;44.484;11.314;2023-02-03T23:10:14;100777.84;;;9.60;62.70
60258;BME280;46115;44.484;11.314;2023-02-03T23:14:16;100769.03;;;9.40;64.24
60258;BME280;46115;44.484;11.314;2023-02-03T23:18:19;100776.84;;;9.19;64.64
60258;BME280;46115;44.484;11.314;2023-02-03T23:22:22;100761.31;;;9.12;64.42
60258;BME280;46115;44.484;11.314;2023-02-03T23:26:24;100763.38;;;9.03;64.68
60258;BME280;46115;44.484;11.314;2023-02-03T23:30:27;100706.97;;;8.84;64.66
60258;BME280;46115;44.484;11.314;2023-02-03T23:34:29;100755.81;;;8.94;65.39
60258;BME280;46115;44.484;11.314;2023-02-03T23:38:50;100742.59;;;9.18;64.49
60258;BME280;46115;44.484;11.314;2023-02-03T23:42:52;100750.59;;;8.93;65.44
60258;BME280;46115;44.484;11.314;2023-02-03T23:46:54;100733.06;;;8.92;65.49
60258;BME280;46115;44.484;11.314;2023-02-03T23:50:57;100740.28;;;8.87;65.90
60258;BME280;46115;44.484;11.314;2023-02-03T23:55:02;100737.88;;;9.04;65.27
60258;BME280;46115;44.484;11.314;2023-02-03T23:59:05;100744.63;;;8.88;65.92
